Time;durP1;ratioP1;P1;durP2;ratioP2;P2;SDS_P1;SDS_P2;PMS_P1;PMS_P2;Temp;Humidity;BMP_temperature;BMP_pressure;BME280_temperature;BME280_humidity;BME280_pressure;Samples;Min_cycle;Max_cycle;Signal;HPM_P1;HPM_P2
2021/01/31 00:03:25;;;;;;;86.23;47.77;;;;;;;-1.59;82.33;98390.66;1752334;80;23476;-72
2021/01/31 00:05:56;;;;;;;86.12;47.25;;;;;;;-1.68;82.31;98396.78;1726562;81;21223;-72
2021/01/31 00:08:25;;;;;;;79.65;43.65;;;;;;;-1.72;82.33;98402.17;1733306;80;21332;-73
2021/01/31 00:10:53;;;;;;;70.15;37.33;;;;;;;-1.75;82.34;98375.15;1744375;81;21444;-73
2021/01/31 00:13:22;;;;;;;75.30;42.90;;;;;;;-1.80;82.35;98355.95;1731395;81;22190;-74
2021/01/31 00:15:51;;;;;;;75.42;41.10;;;;;;;-1.88;82.37;98354.47;1724637;83;21186;-73
2021/01/31 00:18:23;;;;;;;67.50;40.17;;;;;;;-1.96;82.41;98336.52;1745500;80;21243;-74
2021/01/31 00:20:54;;;;;;;64.67;35.68;;;;;;;-2.03;82.51;98329.31;1741670;80;21372;-74
2021/01/31 00:23:22;;;;;;;69.07;38.42;;;;;;;-2.10;82.62;98349.56;1737377;81;21719;-74
2021/01/31 00:25:50;;;;;;;62.85;35.30;;;;;;;-2.17;82.73;98371.40;1729116;81;21197;-74
2021/01/31 00:28:20;;;;;;;65.28;37.63;;;;;;;-2.21;82.87;98388.55;1738541;80;21172;-72
2021/01/31 00:30:48;;;;;;;63.75;37.38;;;;;;;-2.25;83.02;98390.03;1739390;81;21237;-73
2021/01/31 00:33:25;;;;;;;66.90;40.35;;;;;;;-2.25;83.14;98431.87;1732992;81;21380;-73
2021/01/31 00:35:55;;;;;;;72.50;42.70;;;;;;;-2.28;83.20;98429.70;1738641;81;21202;-74
2021/01/31 00:38:23;;;;;;;73.42;41.37;;;;;;;-2.27;83.30;98424.78;1731976;80;21185;-74
2021/01/31 00:40:52;;;;;;;74.50;42.13;;;;;;;-2.27;83.36;98430.01;1732415;81;21466;-73
2021/01/31 00:43:20;;;;;;;76.45;43.55;;;;;;;-2.25;83.45;98422.72;1737192;81;21783;-72
2021/01/31 00:45:49;;;;;;;79.92;45.88;;;;;;;-2.24;83.52;98422.99;1737582;81;21379;-73
2021/01/31 00:48:17;;;;;;;82.47;46.98;;;;;;;-2.26;83.55;98427.67;1736464;81;21478;-72
2021/01/31 00:50:45;;;;;;;70.20;39.85;;;;;;;-2.25;83.62;98428.46;1735342;80;21184;-72
2021/01/31 00:53:15;;;;;;;76.02;43.33;;;;;;;-2.23;83.71;98444.73;1744153;81;21199;-72
2021/01/31 00:55:46;;;;;;;77.07;44.50;;;;;;;-2.22;83.76;98450.24;1729856;81;21182;-71
2021/01/31 00:58:16;;;;;;;77.80;43.02;;;;;;;-2.21;83.80;98448.69;1710441;81;21389;-71
2021/01/31 01:00:46;;;;;;;72.70;42.93;;;;;;;-2.18;83.87;98448.24;1735072;80;21212;-73
2021/01/31 01:03:16;;;;;;;75.17;43.92;;;;;;;-2.15;83.86;98449.09;1706567;81;21211;-72
2021/01/31 01:05:55;;;;;;;71.25;39.83;;;;;;;-2.12;83.84;98455.70;1725010;81;21168;-72
2021/01/31 01:08:23;;;;;;;54.90;31.50;;;;;;;-2.08;83.82;98462.59;1720542;83;21826;-72
2021/01/31 01:10:51;;;;;;;46.60;28.75;;;;;;;-2.08;83.65;98470.44;1738564;80;21590;-71
2021/01/31 01:13:18;;;;;;;42.95;27.40;;;;;;;-2.12;83.17;98481.34;1720405;82;21207;-71
2021/01/31 01:15:46;;;;;;;38.63;24.70;;;;;;;-2.16;83.03;98489.36;1737754;81;21191;-75
2021/01/31 01:18:14;;;;;;;41.77;25.75;;;;;;;-2.17;82.64;98497.45;1720024;82;21091;-73
2021/01/31 01:20:41;;;;;;;38.73;25.20;;;;;;;-2.24;82.48;98493.59;1744274;80;21187;-73
2021/01/31 01:23:10;;;;;;;41.02;24.90;;;;;;;-2.29;82.39;98493.48;1745094;81;21789;-73
2021/01/31 01:25:40;;;;;;;44.18;27.37;;;;;;;-2.31;82.33;98499.44;1743519;81;21174;-73
2021/01/31 01:28:07;;;;;;;41.73;25.40;;;;;;;-2.34;82.19;98509.03;1736217;81;21176;-74
2021/01/31 01:30:35;;;;;;;46.48;28.30;;;;;;;-2.38;82.04;98496.12;1742555;80;21179;-73
2021/01/31 01:33:04;;;;;;;41.77;28.05;;;;;;;-2.43;81.84;98499.42;1709259;81;21187;-73
2021/01/31 01:35:32;;;;;;;42.03;26.87;;;;;;;-2.48;81.57;98514.17;1740704;81;21376;-73
2021/01/31 01:38:00;;;;;;;42.40;27.27;;;;;;;-2.56;81.15;98506.14;1712744;81;21221;-73
2021/01/31 01:40:32;;;;;;;41.88;26.52;;;;;;;-2.60;80.89;98517.55;1740331;81;21172;-72
2021/01/31 01:43:01;;;;;;;37.63;24.70;;;;;;;-2.62;80.65;98516.17;1739460;81;21187;-72
2021/01/31 01:45:28;;;;;;;39.78;25.30;;;;;;;-2.66;80.46;98523.66;1733071;81;21184;-72
2021/01/31 01:48:01;;;;;;;38.38;25.52;;;;;;;-2.68;80.45;98528.30;1739409;81;22679;-72
2021/01/31 01:50:39;;;;;;;38.65;24.82;;;;;;;-2.70;80.36;98535.58;1727893;81;21205;-72
2021/01/31 01:53:07;;;;;;;36.05;23.45;;;;;;;-2.71;80.29;98540.50;1745829;81;22193;-72
2021/01/31 01:55:50;;;;;;;35.20;23.55;;;;;;;-2.72;80.08;98548.05;1732754;81;21158;-71
2021/01/31 01:58:33;;;;;;;31.13;21.43;;;;;;;-2.69;79.99;98558.07;1836284;76;22663;-72
2021/01/31 02:01:00;;;;;;;29.65;20.05;;;;;;;-2.75;79.88;98562.07;1807561;77;21705;-73
2021/01/31 02:03:35;;;;;;;26.73;18.35;;;;;;;-2.75;79.68;98562.07;1799543;79;21877;-72
2021/01/31 02:06:17;;;;;;;25.57;17.52;;;;;;;-2.78;79.53;98581.59;1795759;79;21630;-71
2021/01/31 02:08:45;;;;;;;24.80;16.75;;;;;;;-2.81;79.40;98585.15;1808683;79;21060;-73
2021/01/31 02:11:13;;;;;;;23.87;16.27;;;;;;;-2.83;79.32;98585.35;1807675;77;21095;-73
2021/01/31 02:13:44;;;;;;;22.07;15.72;;;;;;;-2.84;79.27;98588.98;1797983;79;21610;-73
2021/01/31 02:16:32;;;;;;;21.93;13.68;;;;;;;-2.84;78.97;98606.77;1803725;79;22303;-72
2021/01/31 02:19:26;;;;;;;21.97;14.40;;;;;;;-2.85;78.68;98621.36;1794196;79;21186;-73
2021/01/31 02:22:33;;;;;;;21.27;14.05;;;;;;;-2.86;78.61;98632.84;1804191;79;21170;-72
2021/01/31 02:25:59;;;;;;;20.65;13.25;;;;;;;-2.87;78.43;98624.69;1802422;79;21131;-73
2021/01/31 02:29:09;;;;;;;21.25;12.88;;;;;;;-2.89;78.47;98639.80;1798607;79;21060;-72
2021/01/31 02:32:18;;;;;;;20.65;12.65;;;;;;;-2.89;78.41;98651.55;1773804;77;21218;-71
2021/01/31 02:35:05;;;;;;;19.02;12.95;;;;;;;-2.92;78.23;98654.09;1787565;79;21210;-71
2021/01/31 02:37:59;;;;;;;17.62;13.00;;;;;;;-2.93;78.32;98672.09;1797933;79;21262;-71
2021/01/31 02:40:35;;;;;;;15.80;11.22;;;;;;;-2.93;78.27;98682.54;1791587;79;21186;-72
2021/01/31 02:43:16;;;;;;;17.30;11.10;;;;;;;-2.93;78.13;98681.23;1794842;77;21661;-70
2021/01/31 02:45:50;;;;;;;18.70;11.78;;;;;;;-2.95;78.07;98685.86;1794028;79;22377;-71
2021/01/31 02:48:31;;;;;;;15.23;10.48;;;;;;;-2.96;78.15;98691.28;1797299;78;21588;-71
2021/01/31 02:51:11;;;;;;;13.55;8.93;;;;;;;-2.97;78.16;98704.06;1804830;79;21519;-71
2021/01/31 02:53:55;;;;;;;15.13;10.35;;;;;;;-3.01;78.09;98711.53;1795442;79;21112;-71
2021/01/31 02:56:45;;;;;;;14.28;10.03;;;;;;;-3.03;78.13;98718.77;1796365;79;21103;-70
2021/01/31 02:59:27;;;;;;;14.63;10.20;;;;;;;-3.02;78.25;98730.04;1795499;79;21625;-72
2021/01/31 03:02:09;;;;;;;12.53;8.88;;;;;;;-3.02;78.27;98735.27;1776663;79;21207;-72
2021/01/31 03:04:56;;;;;;;13.60;8.83;;;;;;;-3.00;78.31;98741.05;1802920;78;21096;-72
2021/01/31 03:07:32;;;;;;;13.35;9.20;;;;;;;-3.01;78.31;98746.79;1796845;79;21870;-71
2021/01/31 03:10:13;;;;;;;12.82;8.78;;;;;;;-3.01;78.46;98744.17;1810375;79;21199;-71
2021/01/31 03:12:46;;;;;;;14.43;8.98;;;;;;;-2.99;78.53;98760.95;1786598;77;21262;-71
2021/01/31 03:15:18;;;;;;;13.08;8.98;;;;;;;-3.00;78.55;98769.27;1802949;79;21607;-72
2021/01/31 03:17:58;;;;;;;11.73;7.83;;;;;;;-2.98;78.61;98777.71;1786059;79;21080;-73
2021/01/31 03:20:29;;;;;;;12.63;8.78;;;;;;;-2.99;78.61;98785.27;1788866;79;21186;-73
2021/01/31 03:23:15;;;;;;;12.90;8.23;;;;;;;-3.00;78.67;98789.37;1812502;79;21119;-72
2021/01/31 03:26:03;;;;;;;13.20;8.63;;;;;;;-3.03;78.75;98791.90;1794804;79;21163;-71
2021/01/31 03:28:30;;;;;;;12.40;7.12;;;;;;;-3.02;78.74;98803.97;1807209;79;21148;-71
2021/01/31 03:30:58;;;;;;;12.23;8.23;;;;;;;-3.03;78.80;98813.30;1806519;79;21091;-72
2021/01/31 03:33:32;;;;;;;11.88;7.67;;;;;;;-3.09;78.90;98822.30;1791145;78;21190;-71
2021/01/31 03:36:00;;;;;;;12.37;8.25;;;;;;;-3.12;79.09;98825.33;1807130;79;21186;-71
2021/01/31 03:38:35;;;;;;;10.65;7.80;;;;;;;-3.15;79.28;98840.61;1788010;79;21380;-71
2021/01/31 03:41:07;;;;;;;10.80;7.33;;;;;;;-3.17;79.38;98827.75;1798534;79;21193;-71
2021/01/31 03:43:34;;;;;;;10.48;7.45;;;;;;;-3.09;79.51;98840.58;1808962;79;21162;-71
2021/01/31 03:46:29;;;;;;;11.38;7.62;;;;;;;-3.03;79.52;98852.48;1797965;79;21166;-71
2021/01/31 03:49:22;;;;;;;12.28;7.70;;;;;;;-2.98;79.51;98847.44;1805122;79;21162;-71
2021/01/31 03:52:02;;;;;;;10.13;7.37;;;;;;;-2.91;79.55;98853.42;1756966;79;23410;-72
2021/01/31 03:54:30;;;;;;;10.45;6.92;;;;;;;-2.96;79.50;98859.77;1729731;82;21197;-72
2021/01/31 03:57:12;;;;;;;10.03;6.90;;;;;;;-2.93;79.48;98861.96;1730327;80;21521;-72
2021/01/31 03:59:53;;;;;;;9.58;6.65;;;;;;;-2.90;79.43;98865.45;1723493;81;21207;-72
2021/01/31 04:02:29;;;;;;;10.10;7.10;;;;;;;-2.90;79.29;98874.60;1755825;81;21181;-72
2021/01/31 04:04:56;;;;;;;10.90;7.33;;;;;;;-2.92;79.29;98887.09;1751114;79;21143;-73
2021/01/31 04:07:31;;;;;;;12.25;7.70;;;;;;;-2.92;79.27;98890.50;1764130;81;21179;-72
2021/01/31 04:10:01;;;;;;;10.25;6.40;;;;;;;-2.94;79.27;98899.05;1750232;81;22087;-71
2021/01/31 04:12:35;;;;;;;9.60;6.70;;;;;;;-2.95;79.31;98907.90;1742607;81;21136;-71
2021/01/31 04:15:21;;;;;;;10.48;6.85;;;;;;;-2.93;79.30;98922.05;1746478;81;21092;-71
2021/01/31 04:17:50;;;;;;;11.22;7.42;;;;;;;-2.94;79.08;98930.90;1755020;81;21096;-72
2021/01/31 04:20:18;;;;;;;10.88;6.70;;;;;;;-2.96;79.13;98929.81;1745356;81;21678;-72
2021/01/31 04:22:46;;;;;;;10.70;7.90;;;;;;;-2.94;79.11;98933.52;1749512;81;21565;-72
2021/01/31 04:25:15;;;;;;;10.95;6.83;;;;;;;-2.94;79.07;98936.13;1745326;81;21143;-71
2021/01/31 04:27:43;;;;;;;11.03;7.03;;;;;;;-2.96;79.05;98935.52;1759404;81;21171;-72
2021/01/31 04:30:12;;;;;;;10.55;6.87;;;;;;;-2.98;79.00;98939.66;1758661;81;21045;-72
2021/01/31 04:32:39;;;;;;;10.93;7.25;;;;;;;-3.01;78.96;98937.97;1746453;81;21166;-73
2021/01/31 04:35:08;;;;;;;11.12;7.40;;;;;;;-3.02;78.97;98949.44;1753863;79;21881;-72
2021/01/31 04:37:36;;;;;;;11.12;7.25;;;;;;;-3.04;78.94;98952.75;1756242;81;21207;-71
2021/01/31 04:40:06;;;;;;;9.65;6.70;;;;;;;-3.08;78.94;98967.53;1769216;81;21207;-71
2021/01/31 04:42:34;;;;;;;10.03;6.67;;;;;;;-3.11;78.89;98963.22;1749985;81;21116;-72
2021/01/31 04:45:10;;;;;;;10.08;7.30;;;;;;;-3.13;78.83;98975.17;1757740;81;21163;-71
2021/01/31 04:48:00;;;;;;;9.75;5.83;;;;;;;-3.14;78.83;98978.80;1721208;81;21276;-71
2021/01/31 04:51:01;;;;;;;11.65;7.17;;;;;;;-3.17;78.73;98999.30;1744914;81;21959;-71
2021/01/31 04:53:49;;;;;;;9.00;6.37;;;;;;;-3.21;78.76;98996.30;1753155;81;21156;-72
2021/01/31 04:56:47;;;;;;;9.03;5.83;;;;;;;-3.20;78.80;99016.17;1712979;81;21571;-72
2021/01/31 04:59:36;;;;;;;9.15;6.60;;;;;;;-3.17;78.80;99023.60;1760810;81;21646;-71
2021/01/31 05:02:09;;;;;;;11.73;7.10;;;;;;;-3.14;78.76;99027.63;1786780;79;21212;-71
2021/01/31 05:04:57;;;;;;;11.12;6.83;;;;;;;-3.07;78.63;99045.38;1801064;79;21147;-71
2021/01/31 05:07:55;;;;;;;10.17;6.20;;;;;;;-3.02;78.74;99049.49;1772924;79;22789;-72
2021/01/31 05:10:25;;;;;;;;;;;;;;;-3.03;78.71;99053.59;1775685;79;21197;-70
2021/01/31 05:13:01;;;;;;;9.15;6.17;;;;;;;-3.04;78.72;99057.23;1800485;77;21140;-71
2021/01/31 05:15:32;;;;;;;9.30;6.33;;;;;;;-3.05;78.81;99069.48;1782039;80;21307;-71
2021/01/31 05:18:00;;;;;;;10.70;6.87;;;;;;;-3.05;79.20;99083.05;1769588;77;26975;-72
2021/01/31 05:20:33;;;;;;;10.10;7.05;;;;;;;-3.05;79.20;99083.05;1766822;80;21204;-72
2021/01/31 05:23:01;;;;;;;11.75;8.05;;;;;;;-3.00;78.93;99087.15;1788449;79;21177;-72
2021/01/31 05:25:35;;;;;;;10.55;7.28;;;;;;;-2.97;78.90;99097.19;1771356;78;21925;-72
2021/01/31 05:28:05;;;;;;;10.70;6.90;;;;;;;-2.96;78.94;99102.70;1733617;80;21141;-72
2021/01/31 05:30:34;;;;;;;10.35;7.25;;;;;;;-2.94;78.90;99107.23;1781059;80;21208;-72
2021/01/31 05:33:13;;;;;;;10.60;7.08;;;;;;;-2.96;79.07;99113.98;1745229;80;21145;-73
2021/01/31 05:35:54;;;;;;;10.60;7.12;;;;;;;-2.93;78.95;99116.66;1783112;79;21065;-72
2021/01/31 05:38:41;;;;;;;10.70;7.20;;;;;;;-2.94;79.02;99115.07;1760781;79;21232;-70
2021/01/31 05:41:29;;;;;;;12.00;7.40;;;;;;;-2.96;79.07;99122.30;1792082;79;21148;-71
2021/01/31 05:44:07;;;;;;;11.85;7.95;;;;;;;-2.95;79.13;99127.84;1757167;79;21112;-72
2021/01/31 05:46:47;;;;;;;14.10;8.63;;;;;;;-2.96;79.16;99132.27;1772961;79;21193;-71
2021/01/31 05:49:39;;;;;;;13.15;9.03;;;;;;;-2.96;79.13;99132.27;1785160;78;21133;-72
2021/01/31 05:52:26;;;;;;;13.53;8.93;;;;;;;-2.97;79.17;99141.59;1775521;79;21170;-72
2021/01/31 05:54:53;;;;;;;12.37;8.65;;;;;;;-2.93;79.27;99147.53;1768967;79;21191;-72
2021/01/31 05:57:33;;;;;;;14.00;8.15;;;;;;;-2.92;79.16;99154.36;1759019;79;21141;-72
2021/01/31 06:00:19;;;;;;;13.35;8.48;;;;;;;-2.92;79.16;99159.58;1780330;78;21179;-72
2021/01/31 06:03:03;;;;;;;14.70;9.00;;;;;;;-2.95;79.13;99164.41;1766876;79;21092;-72
2021/01/31 06:05:31;;;;;;;14.45;9.15;;;;;;;-2.97;79.13;99172.44;1781804;79;21639;-70
2021/01/31 06:08:30;;;;;;;12.45;8.50;;;;;;;-2.95;79.13;99165.22;1782935;78;21168;-72
2021/01/31 06:11:04;;;;;;;14.63;8.70;;;;;;;-2.92;79.05;99180.48;1776705;79;21195;-73
2021/01/31 06:13:34;;;;;;;15.28;10.20;;;;;;;-2.90;78.94;99187.59;1773981;79;21133;-73
2021/01/31 06:16:06;;;;;;;15.75;10.35;;;;;;;-2.88;78.88;99195.25;1784049;79;21124;-73
2021/01/31 06:18:43;;;;;;;17.67;10.93;;;;;;;-2.83;78.82;99198.04;1788338;79;21333;-73
2021/01/31 06:21:15;;;;;;;14.80;10.48;;;;;;;-2.82;78.60;99200.17;1782992;79;21108;-71
2021/01/31 06:23:47;;;;;;;15.38;10.53;;;;;;;-2.81;78.61;99212.22;1795877;77;21168;-71
2021/01/31 06:26:28;;;;;;;15.88;10.55;;;;;;;-2.78;78.44;99202.17;1784858;78;21167;-72
2021/01/31 06:29:03;;;;;;;15.83;10.05;;;;;;;-2.74;78.39;99209.89;1779480;79;21204;-73
2021/01/31 06:31:53;;;;;;;16.60;10.55;;;;;;;-2.69;78.42;99204.88;1778736;80;21374;-72
2021/01/31 06:34:21;;;;;;;13.68;9.40;;;;;;;-2.61;78.29;99196.80;1705019;82;21208;-72
2021/01/31 06:37:12;;;;;;;16.77;10.15;;;;;;;-2.52;78.03;99209.67;1717924;83;21241;-73
2021/01/31 06:40:12;;;;;;;11.35;6.83;;;;;;;-2.49;77.74;99204.03;1713965;82;21122;-72
2021/01/31 06:43:36;;;;;;;16.00;10.08;;;;;;;-2.49;77.69;99210.56;1714739;83;21064;-72
2021/01/31 06:46:21;;;;;;;14.30;9.85;;;;;;;-2.51;77.53;99212.57;1718667;83;21387;-72
2021/01/31 06:49:06;;;;;;;14.60;9.38;;;;;;;-2.52;77.37;99219.62;1710840;83;21217;-71
2021/01/31 06:51:58;;;;;;;13.20;8.70;;;;;;;-2.54;77.42;99219.52;1713775;82;21133;-71
2021/01/31 06:55:08;;;;;;;15.32;8.83;;;;;;;-2.54;77.48;99220.31;1713310;82;21131;-72
2021/01/31 06:57:50;;;;;;;15.10;9.33;;;;;;;-2.55;77.41;99222.64;1717623;82;21146;-71
2021/01/31 07:00:54;;;;;;;13.85;8.30;;;;;;;-2.57;77.49;99220.72;1710065;82;21345;-71
2021/01/31 07:03:53;;;;;;;14.05;8.75;;;;;;;-2.54;77.54;99239.13;1711298;83;21095;-72
2021/01/31 07:07:03;;;;;;;16.23;10.40;;;;;;;-2.51;77.52;99249.17;1683822;82;21192;-73
2021/01/31 07:10:12;;;;;;;15.53;9.68;;;;;;;-2.49;77.48;99241.44;1702241;82;21164;-72
2021/01/31 07:13:19;;;;;;;16.62;10.72;;;;;;;-2.44;77.45;99249.95;1711460;82;21137;-72
2021/01/31 07:16:19;;;;;;;17.98;10.88;;;;;;;-2.40;77.57;99263.75;1690307;83;21731;-72
2021/01/31 07:19:18;;;;;;;17.10;10.35;;;;;;;-2.33;77.49;99266.86;1703702;82;21470;-72
2021/01/31 07:21:59;;;;;;;17.37;10.88;;;;;;;-2.28;77.29;99280.91;1747064;80;21604;-72
2021/01/31 07:24:35;;;;;;;17.35;10.68;;;;;;;-2.24;77.36;99288.63;1701956;83;21126;-72
2021/01/31 07:27:26;;;;;;;17.07;9.30;;;;;;;-2.17;77.29;99303.03;1705207;82;21161;-71
2021/01/31 07:30:22;;;;;;;18.32;11.12;;;;;;;-2.17;77.07;99305.14;1744967;80;21902;-72
2021/01/31 07:33:08;;;;;;;19.37;11.78;;;;;;;-2.19;77.16;99303.22;1742203;80;21197;-72
2021/01/31 07:35:56;;;;;;;17.55;10.40;;;;;;;-2.17;77.27;99310.38;1745902;81;21118;-72
2021/01/31 07:38:30;;;;;;;19.07;11.65;;;;;;;-2.09;77.25;99319.01;1731263;80;21185;-72
2021/01/31 07:40:58;;;;;;;18.52;11.73;;;;;;;-2.06;77.31;99314.16;1744654;80;21150;-72
2021/01/31 07:43:27;;;;;;;19.35;11.73;;;;;;;-2.01;77.25;99323.50;1751792;80;21304;-73
2021/01/31 07:46:00;;;;;;;18.25;11.95;;;;;;;-1.97;77.00;99330.45;1755632;81;21660;-72
2021/01/31 07:48:42;;;;;;;18.40;11.68;;;;;;;-1.97;76.71;99333.08;1750415;81;21190;-73
2021/01/31 07:51:10;;;;;;;14.68;9.05;;;;;;;-1.97;76.62;99342.23;1745264;81;21215;-71
2021/01/31 07:53:42;;;;;;;20.10;11.03;;;;;;;-2.00;76.53;99340.83;1690524;83;21160;-72
2021/01/31 07:56:33;;;;;;;15.48;9.58;;;;;;;-1.93;76.44;99354.69;1697831;82;21565;-73
2021/01/31 07:59:11;;;;;;;16.37;10.63;;;;;;;-1.92;76.28;99340.59;1683554;83;21954;-72
2021/01/31 08:01:45;;;;;;;19.82;11.38;;;;;;;-1.89;76.11;99354.57;1704125;83;21140;-71
2021/01/31 08:04:21;;;;;;;18.45;11.28;;;;;;;-1.84;75.92;99355.28;1707576;82;21172;-71
2021/01/31 08:06:58;;;;;;;19.00;11.65;;;;;;;-1.82;75.45;99372.88;1716608;83;21371;-71
2021/01/31 08:09:32;;;;;;;18.27;10.90;;;;;;;-1.82;75.25;99358.98;1689890;82;21477;-71
2021/01/31 08:12:09;;;;;;;18.25;11.83;;;;;;;-1.75;75.29;99375.48;1700329;84;21180;-72
2021/01/31 08:15:07;;;;;;;18.62;10.50;;;;;;;-1.67;75.28;99370.83;1710491;82;21236;-71
2021/01/31 08:17:59;;;;;;;17.23;11.38;;;;;;;-1.54;74.66;99374.42;1717774;83;21676;-71
2021/01/31 08:20:32;;;;;;;17.70;10.85;;;;;;;-1.48;74.43;99375.71;1698800;83;21120;-72
2021/01/31 08:23:24;;;;;;;17.85;9.93;;;;;;;-1.40;74.15;99380.41;1698476;82;22534;-73
2021/01/31 08:26:13;;;;;;;18.92;10.45;;;;;;;-1.41;72.84;99395.33;1714772;83;29182;-72
2021/01/31 08:28:44;;;;;;;19.07;10.13;;;;;;;-1.38;72.92;99393.61;1697628;83;21177;-72
2021/01/31 08:31:15;;;;;;;16.48;10.08;;;;;;;-1.33;72.45;99399.01;1730381;81;21171;-72
2021/01/31 08:33:58;;;;;;;16.65;10.23;;;;;;;-1.29;72.13;99413.29;1727872;82;21078;-72
2021/01/31 08:36:28;;;;;;;;;;;;;;;-1.25;71.70;99407.13;1731177;81;21501;-71
2021/01/31 08:38:58;;;;;;;16.77;8.83;;;;;;;-1.11;71.36;99415.77;1733740;81;20595;-72
2021/01/31 08:41:39;;;;;;;;;;;;;;;-1.07;70.70;99407.27;1740632;81;21199;-73
2021/01/31 08:44:15;;;;;;;14.30;8.70;;;;;;;-1.02;70.11;99414.48;1734717;81;20294;-71
2021/01/31 08:47:01;;;;;;;14.45;8.20;;;;;;;-0.95;69.12;99427.88;1701725;83;21189;-72
2021/01/31 08:49:29;;;;;;;13.72;8.35;;;;;;;-0.88;68.53;99430.46;1697953;83;21342;-72
2021/01/31 08:52:09;;;;;;;12.73;7.17;;;;;;;-0.81;68.13;99443.53;1735708;81;21179;-72
2021/01/31 08:54:37;;;;;;;13.53;8.23;;;;;;;-0.84;67.07;99444.75;1672867;84;21173;-72
2021/01/31 08:57:07;;;;;;;12.00;7.08;;;;;;;-0.90;67.01;99439.03;1694205;83;21148;-70
2021/01/31 08:59:46;;;;;;;11.22;6.65;;;;;;;-0.85;66.90;99450.22;1691390;83;21249;-72
2021/01/31 09:02:27;;;;;;;11.95;6.95;;;;;;;-0.74;66.67;99437.74;1703666;83;21237;-72
2021/01/31 09:05:12;;;;;;;10.53;6.15;;;;;;;-0.69;65.77;99451.52;1693871;83;21221;-70
2021/01/31 09:07:45;;;;;;;10.70;6.60;;;;;;;-0.81;65.01;99457.95;1714424;81;21159;-72
2021/01/31 09:10:42;;;;;;;12.53;7.58;;;;;;;-0.87;64.51;99458.27;1705201;82;21672;-72
2021/01/31 09:13:30;;;;;;;13.38;7.72;;;;;;;-0.86;64.87;99469.05;1713325;82;21209;-72
2021/01/31 09:16:24;;;;;;;11.28;7.12;;;;;;;-0.88;64.80;99474.22;1733755;81;21385;-71
2021/01/31 09:19:19;;;;;;;12.25;7.67;;;;;;;-0.92;64.42;99474.32;1729670;81;21175;-73
2021/01/31 09:21:47;;;;;;;11.95;7.47;;;;;;;-1.04;64.47;99473.67;1728368;81;21254;-72
2021/01/31 09:24:16;;;;;;;11.78;7.40;;;;;;;-1.03;64.99;99460.06;1700038;83;21231;-73
2021/01/31 09:26:56;;;;;;;12.18;7.45;;;;;;;-0.96;65.22;99479.18;1665534;84;21165;-71
2021/01/31 09:29:26;;;;;;;13.98;7.95;;;;;;;-0.83;65.43;99486.98;1692690;83;21405;-71
2021/01/31 09:32:27;;;;;;;12.13;6.85;;;;;;;-0.63;65.23;99484.77;1706374;82;21608;-72
2021/01/31 09:34:54;;;;;;;11.25;6.30;;;;;;;-0.46;64.78;99487.22;1704764;82;21216;-71
2021/01/31 09:37:29;;;;;;;12.23;7.03;;;;;;;-0.33;63.89;99490.24;1691013;82;21184;-72
2021/01/31 09:40:01;;;;;;;9.95;6.62;;;;;;;-0.27;63.66;99489.40;1700077;83;21665;-72
2021/01/31 09:42:37;;;;;;;;;;;;;;;-0.18;63.11;99489.95;1677332;84;21419;-72
2021/01/31 09:45:27;;;;;;;10.88;6.20;;;;;;;-0.14;62.97;99493.76;1698823;82;20287;-72
2021/01/31 09:47:54;;;;;;;10.50;5.62;;;;;;;-0.06;62.61;99493.52;1691667;83;21238;-72
2021/01/31 09:50:22;;;;;;;9.68;5.85;;;;;;;-0.09;61.29;99501.81;1722510;81;21180;-71
2021/01/31 09:52:57;;;;;;;9.03;5.42;;;;;;;-0.17;61.80;99488.93;1737011;81;21247;-72
2021/01/31 09:55:43;;;;;;;9.78;6.20;;;;;;;-0.19;61.29;99502.79;1738188;81;22386;-72
2021/01/31 09:58:18;;;;;;;11.25;5.83;;;;;;;-0.29;61.36;99510.62;1732514;81;21140;-71
2021/01/31 10:00:48;;;;;;;9.35;6.08;;;;;;;-0.27;61.43;99509.08;1734676;81;21179;-72
2021/01/31 10:03:31;;;;;;;9.38;6.05;;;;;;;-0.17;61.60;99512.04;1703249;82;21730;-73
2021/01/31 10:06:07;;;;;;;10.18;6.33;;;;;;;0.10;61.40;99512.67;1695833;83;21609;-72
2021/01/31 10:08:43;;;;;;;10.82;6.50;;;;;;;0.26;60.70;99517.88;1697338;83;21410;-71
2021/01/31 10:11:42;;;;;;;8.83;5.60;;;;;;;0.29;60.71;99517.45;1700663;82;21510;-72
2021/01/31 10:14:16;;;;;;;8.20;5.22;;;;;;;0.42;60.35;99523.09;1736025;81;21194;-71
2021/01/31 10:16:45;;;;;;;9.50;6.15;;;;;;;0.51;59.52;99520.50;1681777;81;21189;-72
2021/01/31 10:19:23;;;;;;;9.50;5.20;;;;;;;0.48;59.11;99530.13;1695953;83;21230;-72
2021/01/31 10:22:21;;;;;;;10.03;6.33;;;;;;;0.42;58.71;99530.47;1692943;83;21819;-73
2021/01/31 10:24:48;;;;;;;9.18;5.50;;;;;;;0.37;59.19;99533.47;1679736;83;21223;-71
2021/01/31 10:27:33;;;;;;;9.43;4.87;;;;;;;0.42;59.38;99538.86;1681234;85;21347;-72
2021/01/31 10:30:22;;;;;;;9.33;5.17;;;;;;;0.51;59.27;99544.14;1680404;83;21192;-73
2021/01/31 10:32:50;;;;;;;9.25;5.85;;;;;;;0.52;58.72;99539.17;1671381;84;21195;-73
2021/01/31 10:35:29;;;;;;;10.08;5.83;;;;;;;0.58;59.21;99554.08;1672647;84;21241;-73
2021/01/31 10:37:59;;;;;;;9.78;5.42;;;;;;;0.80;59.32;99552.37;1673328;84;21171;-73
2021/01/31 10:40:27;;;;;;;8.88;5.35;;;;;;;1.03;58.81;99556.48;1675103;85;21188;-72
2021/01/31 10:42:56;;;;;;;8.93;5.30;;;;;;;1.17;57.62;99553.18;1705615;82;21200;-72
2021/01/31 10:45:26;;;;;;;8.70;5.03;;;;;;;1.08;56.24;99553.98;1706162;82;21193;-72
2021/01/31 10:47:54;;;;;;;9.25;5.10;;;;;;;1.04;55.82;99561.22;1705537;82;21395;-73
2021/01/31 10:50:22;;;;;;;7.25;4.58;;;;;;;1.02;55.80;99566.71;1706069;82;21158;-73
2021/01/31 10:52:52;;;;;;;6.47;4.25;;;;;;;0.95;56.36;99568.58;1705388;82;21171;-72
2021/01/31 10:55:21;;;;;;;7.72;4.42;;;;;;;0.97;56.54;99571.01;1702015;83;21185;-73
2021/01/31 10:57:50;;;;;;;9.45;5.20;;;;;;;0.93;56.82;99570.64;1705651;83;21184;-73
2021/01/31 11:00:19;;;;;;;8.95;4.80;;;;;;;0.94;56.33;99572.24;1710388;82;21534;-73
2021/01/31 11:02:47;;;;;;;8.80;5.00;;;;;;;1.08;56.26;99572.90;1721395;82;21290;-71
2021/01/31 11:05:15;;;;;;;7.15;4.62;;;;;;;1.31;56.06;99567.78;1706160;82;21209;-72
2021/01/31 11:07:43;;;;;;;7.50;4.15;;;;;;;1.46;55.58;99569.25;1707909;82;21392;-72
2021/01/31 11:10:14;;;;;;;7.20;4.28;;;;;;;1.46;54.56;99566.61;1713800;82;21192;-73
2021/01/31 11:12:42;;;;;;;8.50;4.83;;;;;;;1.37;54.99;99577.42;1708255;82;22356;-72
2021/01/31 11:15:11;;;;;;;9.25;4.90;;;;;;;1.36;55.16;99570.56;1702290;84;21153;-73
2021/01/31 11:17:39;;;;;;;6.83;4.15;;;;;;;1.33;54.44;99575.47;1707997;82;21129;-72
2021/01/31 11:20:09;;;;;;;6.97;3.62;;;;;;;1.14;53.53;99598.33;1705149;82;21669;-73
2021/01/31 11:22:37;;;;;;;8.15;4.58;;;;;;;0.92;54.31;99603.19;1708144;82;21217;-72
2021/01/31 11:25:07;;;;;;;7.35;4.20;;;;;;;0.79;54.38;99595.43;1702990;84;21396;-73
2021/01/31 11:27:36;;;;;;;7.28;4.35;;;;;;;0.87;54.53;99603.05;1700947;82;21189;-72
2021/01/31 11:30:07;;;;;;;7.75;4.80;;;;;;;0.95;54.32;99594.88;1710728;82;21267;-73
2021/01/31 11:32:35;;;;;;;8.15;5.55;;;;;;;0.91;54.37;99591.88;1702331;82;21153;-73
2021/01/31 11:35:07;;;;;;;6.92;4.35;;;;;;;0.84;54.74;99602.97;1668790;84;21192;-73
2021/01/31 11:37:34;;;;;;;7.35;4.22;;;;;;;0.79;54.40;99594.95;1664395;84;21231;-73
2021/01/31 11:40:05;;;;;;;7.42;4.92;;;;;;;0.67;53.65;99626.89;1696150;82;21152;-73
2021/01/31 11:42:33;;;;;;;8.50;5.42;;;;;;;0.43;54.42;99615.36;1666039;84;21224;-72
2021/01/31 11:45:04;;;;;;;8.08;5.33;;;;;;;0.33;55.00;99609.27;1663980;84;21464;-74
2021/01/31 11:47:36;;;;;;;9.13;5.72;;;;;;;0.28;54.62;99609.09;1708304;82;21237;-72
2021/01/31 11:50:09;;;;;;;8.20;5.25;;;;;;;0.26;55.00;99623.44;1701195;82;21368;-73
2021/01/31 11:52:40;;;;;;;8.23;4.30;;;;;;;0.25;54.96;99613.45;1708405;82;21273;-73
2021/01/31 11:55:09;;;;;;;8.68;4.83;;;;;;;0.23;54.81;99612.36;1636622;85;21266;-74
2021/01/31 11:57:37;;;;;;;8.83;4.90;;;;;;;0.25;54.94;99609.51;1673730;84;21691;-75
2021/01/31 12:00:11;;;;;;;6.50;4.28;;;;;;;0.25;55.11;99611.33;1672573;84;21230;-74
2021/01/31 12:02:42;;;;;;;6.70;4.15;;;;;;;0.23;55.30;99612.36;1706291;83;21804;-73
2021/01/31 12:05:11;;;;;;;7.90;4.12;;;;;;;0.18;55.25;99616.12;1695713;82;21629;-72
2021/01/31 12:07:44;;;;;;;9.80;4.90;;;;;;;0.16;55.25;99627.33;1704941;82;21161;-72
2021/01/31 12:10:16;;;;;;;7.45;3.90;;;;;;;0.20;55.43;99628.54;1656993;85;21218;-73
2021/01/31 12:12:45;;;;;;;8.45;3.65;;;;;;;0.29;55.12;99617.25;1673094;84;22050;-73
2021/01/31 12:15:15;;;;;;;5.50;3.08;;;;;;;0.28;54.61;99613.54;1707889;82;21884;-73